createdAt,value
2023-05-08T00:01:01.345Z,2.80
2023-05-08T00:03:28.019Z,2.65
2023-05-08T00:05:55.934Z,2.60
2023-05-08T00:08:22.675Z,2.50
2023-05-08T00:10:49.606Z,3.08
2023-05-08T00:13:16.243Z,2.67
2023-05-08T00:15:42.769Z,2.50
2023-05-08T00:18:09.354Z,2.78
2023-05-08T00:20:35.847Z,2.88
2023-05-08T00:23:02.278Z,3.40
2023-05-08T00:25:28.707Z,2.70
2023-05-08T00:27:55.116Z,2.70
2023-05-08T00:30:22.158Z,2.65
2023-05-08T00:32:48.686Z,3.00
2023-05-08T00:35:15.141Z,2.47
2023-05-08T00:37:42.082Z,3.30
2023-05-08T00:40:09.659Z,3.20
2023-05-08T00:42:36.477Z,4.03
2023-05-08T00:45:03.242Z,3.45
2023-05-08T00:47:30.386Z,3.65
2023-05-08T00:49:57.641Z,4.47
2023-05-08T00:52:24.091Z,3.50
2023-05-08T00:54:50.544Z,4.20
2023-05-08T00:57:17.090Z,3.58
2023-05-08T00:59:45.416Z,3.40
2023-05-08T01:02:11.991Z,3.72
2023-05-08T01:04:39.278Z,3.42
2023-05-08T01:07:05.692Z,3.67
2023-05-08T01:09:32.167Z,3.60
2023-05-08T01:12:17.436Z,3.90
2023-05-08T01:14:52.294Z,4.13
2023-05-08T01:17:33.194Z,3.97
2023-05-08T01:20:06.088Z,3.65
2023-05-08T01:22:51.016Z,3.60
2023-05-08T01:25:36.244Z,3.95
2023-05-08T01:28:12.290Z,3.60
2023-05-08T01:30:41.687Z,3.63
2023-05-08T01:33:10.961Z,3.75
2023-05-08T01:35:43.067Z,3.63
2023-05-08T01:38:18.558Z,3.40
2023-05-08T01:40:56.716Z,3.80
2023-05-08T01:43:31.274Z,3.20
2023-05-08T01:45:59.258Z,3.28
2023-05-08T01:48:32.616Z,3.47
2023-05-08T01:53:29.606Z,3.13
2023-05-08T01:55:58.031Z,3.08
2023-05-08T01:58:25.618Z,2.83
2023-05-08T02:00:53.015Z,2.83
2023-05-08T02:05:46.887Z,3.20
2023-05-08T02:10:42.344Z,3.00
2023-05-08T02:13:10.206Z,3.05
2023-05-08T02:15:37.746Z,3.75
2023-05-08T02:18:08.468Z,2.92
2023-05-08T02:20:35.723Z,3.30
2023-05-08T02:23:02.499Z,3.00
2023-05-08T02:25:30.477Z,3.22
2023-05-08T02:27:57.336Z,3.33
2023-05-08T02:30:25.489Z,3.03
2023-05-08T02:32:53.176Z,3.10
2023-05-08T02:35:20.562Z,3.10
2023-05-08T02:37:49.505Z,3.05
2023-05-08T02:40:17.458Z,3.75
2023-05-08T02:42:44.371Z,2.78
2023-05-08T02:45:12.356Z,3.22
2023-05-08T02:47:41.618Z,2.95
2023-05-08T02:50:15.066Z,3.10
2023-05-08T02:55:20.468Z,2.95
2023-05-08T02:57:50.973Z,2.97
2023-05-08T03:00:22.692Z,3.38
2023-05-08T03:03:11.995Z,3.13
2023-05-08T03:05:39.567Z,3.50
2023-05-08T03:10:33.918Z,2.92
2023-05-08T03:13:03.697Z,3.20
2023-05-08T03:15:33.122Z,2.95
2023-05-08T03:18:03.037Z,3.03
2023-05-08T03:20:32.298Z,2.90
2023-05-08T03:22:59.598Z,2.80
2023-05-08T03:27:53.048Z,3.00
2023-05-08T03:30:20.630Z,3.20
2023-05-08T03:32:58.438Z,2.88
2023-05-08T03:35:25.673Z,3.10
2023-05-08T03:40:18.811Z,3.25
2023-05-08T03:42:45.839Z,2.80
2023-05-08T03:45:13.901Z,3.05
2023-05-08T03:47:42.294Z,2.58
2023-05-08T03:50:09.369Z,3.10
2023-05-08T03:52:36.499Z,2.88
2023-05-08T03:55:03.655Z,2.90
2023-05-08T03:57:48.229Z,3.28
2023-05-08T04:00:19.870Z,3.25
2023-05-08T04:02:49.125Z,3.20
2023-05-08T04:05:19.533Z,3.00
2023-05-08T04:08:09.257Z,3.20
2023-05-08T04:10:43.471Z,3.00
2023-05-08T04:13:18.999Z,3.28
2023-05-08T04:15:50.286Z,3.00
2023-05-08T04:18:20.749Z,2.70
2023-05-08T04:20:47.953Z,2.83
2023-05-08T04:23:17.210Z,2.92
2023-05-08T04:25:44.606Z,3.17
2023-05-08T04:28:11.913Z,2.47
2023-05-08T04:30:39.862Z,3.80
2023-05-08T04:33:07.250Z,3.50
2023-05-08T04:35:34.801Z,3.10
2023-05-08T04:38:02.235Z,2.75
2023-05-08T04:40:28.759Z,3.08
2023-05-08T04:42:55.430Z,3.97
2023-05-08T04:45:23.134Z,3.58
2023-05-08T04:47:49.786Z,3.10
2023-05-08T04:50:16.871Z,2.97
2023-05-08T04:52:43.309Z,3.10
2023-05-08T04:55:10.509Z,3.03
2023-05-08T04:57:38.781Z,3.20
2023-05-08T05:00:06.413Z,2.63
2023-05-08T05:02:37.051Z,2.30
2023-05-08T05:05:04.725Z,3.65
2023-05-08T05:07:31.380Z,2.90
2023-05-08T05:09:57.936Z,2.60
2023-05-08T05:12:24.528Z,2.63
2023-05-08T05:14:51.217Z,2.63
2023-05-08T05:17:18.529Z,3.13
2023-05-08T05:19:45.018Z,2.80
2023-05-08T05:22:11.462Z,2.72
2023-05-08T05:24:39.684Z,2.80
2023-05-08T05:27:06.277Z,2.30
2023-05-08T05:29:32.843Z,2.45
2023-05-08T05:31:59.555Z,3.10
2023-05-08T05:34:25.975Z,2.70
2023-05-08T05:36:53.212Z,2.55
2023-05-08T05:39:21.023Z,2.90
2023-05-08T05:41:48.253Z,3.20
2023-05-08T05:44:14.783Z,2.35
2023-05-08T05:46:44.096Z,2.35
2023-05-08T05:49:12.191Z,2.45
2023-05-08T05:51:38.736Z,2.17
2023-05-08T05:54:05.276Z,2.45
2023-05-08T05:56:31.795Z,2.20
2023-05-08T05:58:58.731Z,2.30
2023-05-08T06:03:53.039Z,2.35
2023-05-08T06:06:19.810Z,2.40
2023-05-08T06:08:47.336Z,3.00
2023-05-08T06:11:13.801Z,2.95
2023-05-08T06:16:32.169Z,2.92
2023-05-08T06:18:59.464Z,3.30
2023-05-08T06:21:26.731Z,3.17
2023-05-08T06:23:53.229Z,3.47
2023-05-08T06:26:21.491Z,3.72
2023-05-08T06:28:49.149Z,4.20
2023-05-08T06:31:19.263Z,4.00
2023-05-08T06:33:46.104Z,4.32
2023-05-08T06:36:12.854Z,4.38
2023-05-08T06:38:39.494Z,4.50
2023-05-08T06:41:06.377Z,4.93
2023-05-08T06:43:33.000Z,5.00
2023-05-08T06:45:59.758Z,5.10
2023-05-08T06:48:29.124Z,5.30
2023-05-08T06:50:56.405Z,5.80
2023-05-08T06:53:23.128Z,5.57
2023-05-08T06:55:49.632Z,5.68
2023-05-08T06:58:16.215Z,5.80
2023-05-08T07:00:42.910Z,6.38
2023-05-08T07:03:10.566Z,6.78
2023-05-08T07:05:37.114Z,5.95
2023-05-08T07:08:03.627Z,8.43
2023-05-08T07:10:30.378Z,7.97
2023-05-08T07:12:56.878Z,7.65
2023-05-08T07:15:26.589Z,6.60
2023-05-08T07:17:53.736Z,8.25
2023-05-08T07:20:21.493Z,7.28
2023-05-08T07:22:48.203Z,8.05
2023-05-08T07:25:14.936Z,8.73
2023-05-08T07:27:41.914Z,7.75
2023-05-08T07:30:08.756Z,8.32
2023-05-08T07:32:35.575Z,8.75
2023-05-08T07:35:02.902Z,9.52
2023-05-08T07:39:56.135Z,8.40
2023-05-08T07:42:22.545Z,10.43
2023-05-08T07:44:54.723Z,6.60
2023-05-08T07:47:21.992Z,9.10
2023-05-08T07:49:48.405Z,6.90
2023-05-08T07:52:14.918Z,10.55
2023-05-08T07:54:41.358Z,11.70
2023-05-08T07:57:07.913Z,9.23
2023-05-08T07:59:34.341Z,6.63
2023-05-08T08:02:00.924Z,4.47
2023-05-08T08:04:30.597Z,7.65
2023-05-08T08:06:57.411Z,12.95
2023-05-08T08:09:24.163Z,11.13
2023-05-08T08:11:50.744Z,10.15
2023-05-08T08:14:17.227Z,12.73
2023-05-08T08:16:43.809Z,12.18
2023-05-08T08:19:10.959Z,11.70
2023-05-08T08:21:41.842Z,13.82
2023-05-08T08:24:08.482Z,11.02
2023-05-08T08:26:35.375Z,12.98
2023-05-08T08:29:02.176Z,12.48
2023-05-08T08:31:28.688Z,12.63
2023-05-08T08:33:55.248Z,7.82
2023-05-08T08:36:21.667Z,7.65
2023-05-08T08:38:48.169Z,11.57
2023-05-08T08:41:15.474Z,8.15
2023-05-08T08:43:43.447Z,12.18
2023-05-08T08:46:16.894Z,13.02
2023-05-08T08:51:14.418Z,15.10
2023-05-08T08:53:43.207Z,10.57
2023-05-08T08:56:11.674Z,13.45
2023-05-08T08:58:40.585Z,14.35
2023-05-08T09:01:07.760Z,14.95
2023-05-08T09:03:34.481Z,14.60
2023-05-08T09:06:01.521Z,14.60
2023-05-08T09:08:28.471Z,10.43
2023-05-08T09:10:55.707Z,13.10
2023-05-08T09:13:22.588Z,13.77
2023-05-08T09:15:50.578Z,14.55
2023-05-08T09:18:17.623Z,12.85
2023-05-08T09:20:44.362Z,12.43
2023-05-08T09:23:11.361Z,13.95
2023-05-08T09:25:43.603Z,14.40
2023-05-08T09:28:19.462Z,14.93
2023-05-08T09:30:56.839Z,15.18
2023-05-08T09:33:24.278Z,15.98
2023-05-08T09:38:35.502Z,14.52
2023-05-08T09:41:08.748Z,14.30
2023-05-08T09:43:35.565Z,15.38
2023-05-08T09:46:17.456Z,14.35
2023-05-08T09:48:45.790Z,15.48
2023-05-08T09:51:12.395Z,15.75
2023-05-08T09:53:38.904Z,15.82
2023-05-08T09:56:06.170Z,11.82
2023-05-08T09:58:39.472Z,13.82
2023-05-08T10:01:06.234Z,12.27
2023-05-08T10:03:49.081Z,14.90
2023-05-08T10:06:16.255Z,17.42
2023-05-08T10:08:42.801Z,15.20
2023-05-08T10:11:16.582Z,16.45
2023-05-08T10:13:43.855Z,16.00
2023-05-08T10:16:17.490Z,18.70
2023-05-08T10:18:51.068Z,19.03
2023-05-08T10:21:20.428Z,20.95
2023-05-08T10:23:49.039Z,21.63
2023-05-08T10:26:24.888Z,21.15
2023-05-08T10:29:07.021Z,22.02
2023-05-08T10:31:36.406Z,20.48
2023-05-08T10:34:03.896Z,23.15
2023-05-08T10:36:31.168Z,24.17
2023-05-08T10:38:58.268Z,24.10
2023-05-08T10:41:26.029Z,21.27
2023-05-08T10:43:53.248Z,21.08
2023-05-08T10:46:23.149Z,21.20
2023-05-08T10:48:52.387Z,24.13
2023-05-08T10:51:18.829Z,22.23
2023-05-08T10:53:53.853Z,22.05
2023-05-08T10:56:26.184Z,28.23
2023-05-08T10:58:56.610Z,28.90
2023-05-08T11:01:23.432Z,29.02
2023-05-08T11:03:52.945Z,22.27
2023-05-08T11:06:40.228Z,20.83
2023-05-08T11:09:06.889Z,19.98
2023-05-08T11:11:38.159Z,16.80
2023-05-08T11:14:04.548Z,16.08
2023-05-08T11:16:49.638Z,15.10
2023-05-08T11:19:17.179Z,15.35
2023-05-08T11:22:02.573Z,13.82
2023-05-08T11:24:38.406Z,12.95
2023-05-08T11:27:04.977Z,12.85
2023-05-08T11:29:31.572Z,12.98
2023-05-08T11:31:58.161Z,12.30
2023-05-08T11:34:43.260Z,11.32
2023-05-08T11:37:10.924Z,11.15
2023-05-08T11:39:37.566Z,11.30
2023-05-08T11:42:33.229Z,10.48
2023-05-08T11:45:09.548Z,10.57
2023-05-08T11:47:43.710Z,10.15
2023-05-08T11:50:11.694Z,10.60
2023-05-08T11:52:41.562Z,9.93
2023-05-08T11:55:09.289Z,9.95
2023-05-08T11:57:36.014Z,9.82
2023-05-08T12:00:05.838Z,9.90
2023-05-08T12:02:44.641Z,10.18
2023-05-08T12:05:11.642Z,10.32
2023-05-08T12:07:46.669Z,9.63
2023-05-08T12:10:14.470Z,9.65
2023-05-08T12:12:42.381Z,9.32
2023-05-08T12:15:09.629Z,9.05
2023-05-08T12:17:36.299Z,9.00
2023-05-08T12:20:18.745Z,11.15
2023-05-08T12:22:52.423Z,10.80
2023-05-08T12:25:19.486Z,11.95
2023-05-08T12:27:46.084Z,10.68
2023-05-08T12:30:13.968Z,9.85
2023-05-08T12:32:41.443Z,10.60
2023-05-08T12:35:08.695Z,11.55
2023-05-08T12:40:01.603Z,9.80
2023-05-08T12:42:44.526Z,9.60
2023-05-08T12:45:20.431Z,8.45
2023-05-08T12:47:50.730Z,9.30
2023-05-08T12:50:17.728Z,8.93
2023-05-08T12:52:44.523Z,9.35
2023-05-08T12:55:24.376Z,8.50
2023-05-08T12:57:58.672Z,9.20
2023-05-08T13:00:25.146Z,9.02
2023-05-08T13:02:53.527Z,8.15
2023-05-08T13:05:23.890Z,8.95
2023-05-08T13:07:51.441Z,9.27
2023-05-08T13:10:23.588Z,7.82
2023-05-08T13:12:51.062Z,7.57
2023-05-08T13:15:17.553Z,7.13
2023-05-08T13:17:44.043Z,8.27
2023-05-08T13:20:11.568Z,7.50
2023-05-08T13:22:38.248Z,7.32
2023-05-08T13:25:05.049Z,7.82
2023-05-08T13:27:31.613Z,8.15
2023-05-08T13:29:58.310Z,7.47
2023-05-08T13:32:24.892Z,6.75
2023-05-08T13:34:53.150Z,7.75
2023-05-08T13:37:22.965Z,7.57
2023-05-08T13:39:49.421Z,7.28
2023-05-08T13:42:15.933Z,7.10
2023-05-08T13:44:42.453Z,7.20
2023-05-08T13:47:09.747Z,8.07
2023-05-08T13:52:02.617Z,6.80
2023-05-08T13:54:29.627Z,6.82
2023-05-08T13:56:56.205Z,7.68
2023-05-08T13:59:22.740Z,7.25
2023-05-08T14:01:49.311Z,6.88
2023-05-08T14:04:15.785Z,7.05
2023-05-08T14:06:42.347Z,7.32
2023-05-08T14:09:09.031Z,6.90
2023-05-08T14:11:35.526Z,7.32
2023-05-08T14:14:02.147Z,7.07
2023-05-08T14:16:28.700Z,7.55
2023-05-08T14:18:55.926Z,8.65
2023-05-08T14:21:22.437Z,7.88
2023-05-08T14:23:48.900Z,7.68
2023-05-08T14:26:16.769Z,7.47
2023-05-08T14:28:43.573Z,7.95
2023-05-08T14:31:10.421Z,8.30
2023-05-08T14:33:36.990Z,7.45
2023-05-08T14:36:03.621Z,7.18
2023-05-08T14:38:30.117Z,6.60
2023-05-08T14:40:56.578Z,6.32
2023-05-08T14:43:23.338Z,6.72
2023-05-08T14:45:49.898Z,6.90
2023-05-08T14:48:16.503Z,6.85
2023-05-08T14:50:43.021Z,6.45
2023-05-08T14:53:09.616Z,6.40
2023-05-08T14:55:36.998Z,6.85
2023-05-08T14:58:03.770Z,7.05
2023-05-08T15:00:36.524Z,6.50
2023-05-08T15:03:03.220Z,7.43
2023-05-08T15:05:29.884Z,6.72
2023-05-08T15:07:57.320Z,7.18
2023-05-08T15:10:23.896Z,8.00
2023-05-08T15:12:50.720Z,8.05
2023-05-08T15:15:17.264Z,7.85
2023-05-08T15:17:43.853Z,8.82
2023-05-08T15:20:10.594Z,10.70
2023-05-08T15:22:37.206Z,9.68
2023-05-08T15:25:04.034Z,9.27
2023-05-08T15:27:31.363Z,10.68
2023-05-08T15:29:58.242Z,10.88
2023-05-08T15:32:25.113Z,11.90
2023-05-08T15:34:51.705Z,12.02
2023-05-08T15:37:18.306Z,12.38
2023-05-08T15:39:44.814Z,11.73
2023-05-08T15:42:11.303Z,10.07
2023-05-08T15:44:54.137Z,11.93
2023-05-08T15:47:23.204Z,11.70
2023-05-08T15:49:50.716Z,12.57
2023-05-08T15:54:48.475Z,12.52
2023-05-08T15:57:15.413Z,12.13
2023-05-08T15:59:42.189Z,11.52
2023-05-08T16:02:08.903Z,10.43
2023-05-08T16:04:35.902Z,10.88
2023-05-08T16:07:02.607Z,10.85
2023-05-08T16:09:29.086Z,9.70
2023-05-08T16:11:55.842Z,10.15
2023-05-08T16:14:22.358Z,9.55
2023-05-08T16:16:48.900Z,9.52
2023-05-08T16:19:16.030Z,10.45
2023-05-08T16:21:42.503Z,9.00
2023-05-08T16:24:09.043Z,9.30
2023-05-08T16:26:35.552Z,9.02
2023-05-08T16:29:02.129Z,8.68
2023-05-08T16:31:29.170Z,8.70
2023-05-08T16:33:55.919Z,8.68
2023-05-08T16:36:22.429Z,9.00
2023-05-08T16:38:49.027Z,9.20
2023-05-08T16:41:15.568Z,8.60
2023-05-08T16:43:42.088Z,9.18
2023-05-08T16:46:08.685Z,9.32
2023-05-08T16:48:35.465Z,8.95
2023-05-08T16:51:01.916Z,9.35
2023-05-08T16:53:28.700Z,9.57
2023-05-08T16:55:55.425Z,9.63
2023-05-08T16:58:22.859Z,11.40
2023-05-08T17:00:49.631Z,10.77
2023-05-08T17:03:16.649Z,11.38
2023-05-08T17:05:43.223Z,11.95
2023-05-08T17:08:11.754Z,11.57
2023-05-08T17:10:39.466Z,11.60
2023-05-08T17:13:06.374Z,12.10
2023-05-08T17:15:32.980Z,11.85
2023-05-08T17:17:59.587Z,13.25
2023-05-08T17:20:26.330Z,13.63
2023-05-08T17:22:53.348Z,14.50
2023-05-08T17:25:20.117Z,14.63
2023-05-08T17:27:46.616Z,14.73
2023-05-08T17:30:14.988Z,15.63
2023-05-08T17:32:41.779Z,23.33
2023-05-08T17:35:08.653Z,24.77
2023-05-08T17:37:35.114Z,31.17
2023-05-08T17:40:01.699Z,26.67
2023-05-08T17:42:28.244Z,29.95
2023-05-08T17:44:54.834Z,27.52
2023-05-08T17:47:21.349Z,25.58
2023-05-08T17:49:47.790Z,25.05
2023-05-08T17:52:14.440Z,24.33
2023-05-08T17:54:40.963Z,26.75
2023-05-08T17:57:07.670Z,25.30
2023-05-08T17:59:34.345Z,26.75
2023-05-08T18:02:01.023Z,25.20
2023-05-08T18:04:27.553Z,25.42
2023-05-08T18:06:54.090Z,22.52
2023-05-08T18:09:21.098Z,26.67
2023-05-08T18:11:47.579Z,25.13
2023-05-08T18:14:14.316Z,24.00
2023-05-08T18:16:40.840Z,21.92
2023-05-08T18:19:07.389Z,23.38
2023-05-08T18:21:34.098Z,22.48
2023-05-08T18:24:00.877Z,22.00
2023-05-08T18:26:27.351Z,22.45
2023-05-08T18:28:53.949Z,21.55
2023-05-08T18:31:20.886Z,21.92
2023-05-08T18:33:47.487Z,22.13
2023-05-08T18:36:14.073Z,20.30
2023-05-08T18:38:41.774Z,20.77
2023-05-08T18:41:08.408Z,20.85
2023-05-08T18:43:35.228Z,20.48
2023-05-08T18:46:07.486Z,20.48
2023-05-08T18:48:34.102Z,18.25
2023-05-08T18:51:00.649Z,18.17
2023-05-08T18:53:30.573Z,17.95
2023-05-08T18:55:57.216Z,18.15
2023-05-08T18:58:23.813Z,16.73
2023-05-08T19:00:50.459Z,17.17
2023-05-08T19:03:18.412Z,16.65
2023-05-08T19:05:44.982Z,16.30
2023-05-08T19:08:13.085Z,17.10
2023-05-08T19:10:39.541Z,15.82
2023-05-08T19:13:06.103Z,15.98
2023-05-08T19:15:32.608Z,15.40
2023-05-08T19:17:59.288Z,15.85
2023-05-08T19:20:25.863Z,15.38
2023-05-08T19:22:52.326Z,14.63
2023-05-08T19:25:18.804Z,14.93
2023-05-08T19:27:45.317Z,14.57
2023-05-08T19:30:13.351Z,15.38
2023-05-08T19:32:39.995Z,13.77
2023-05-08T19:35:08.154Z,15.10
2023-05-08T19:37:35.199Z,14.48
2023-05-08T19:40:01.696Z,14.45
2023-05-08T19:42:28.315Z,14.10
2023-05-08T19:44:54.907Z,13.77
2023-05-08T19:47:21.434Z,13.00
2023-05-08T19:49:49.640Z,12.85
2023-05-08T19:52:16.124Z,14.65
2023-05-08T19:54:45.300Z,13.82
2023-05-08T19:57:11.757Z,15.05
2023-05-08T19:59:38.301Z,14.70
2023-05-08T20:02:04.821Z,14.95
2023-05-08T20:04:33.852Z,15.68
2023-05-08T20:07:05.517Z,15.15
2023-05-08T20:09:32.174Z,14.55
2023-05-08T20:11:58.672Z,14.40
2023-05-08T20:14:25.280Z,14.68
2023-05-08T20:16:51.846Z,15.65
2023-05-08T20:19:18.417Z,15.07
2023-05-08T20:21:45.009Z,13.73
2023-05-08T20:24:11.644Z,14.63
2023-05-08T20:26:38.362Z,14.73
2023-05-08T20:29:04.922Z,14.43
2023-05-08T20:31:31.601Z,13.45
2023-05-08T20:33:59.561Z,13.88
2023-05-08T20:36:26.381Z,13.10
2023-05-08T20:38:53.080Z,14.73
2023-05-08T20:41:19.745Z,14.70
2023-05-08T20:43:46.195Z,13.00
2023-05-08T20:46:12.724Z,14.63
2023-05-08T20:48:39.223Z,12.32
2023-05-08T20:51:05.899Z,12.65
2023-05-08T20:53:32.788Z,11.15
2023-05-08T20:55:59.934Z,12.25
2023-05-08T20:58:26.516Z,12.55
2023-05-08T21:00:53.148Z,13.40
2023-05-08T21:03:19.590Z,14.07
2023-05-08T21:05:46.205Z,13.57
2023-05-08T21:08:12.973Z,12.68
2023-05-08T21:10:39.566Z,12.90
2023-05-08T21:13:06.184Z,12.20
2023-05-08T21:15:34.914Z,12.93
2023-05-08T21:18:01.509Z,13.38
2023-05-08T21:20:28.034Z,13.15
2023-05-08T21:22:54.572Z,10.48
2023-05-08T21:25:21.743Z,11.82
2023-05-08T21:27:48.267Z,12.20
2023-05-08T21:30:16.380Z,9.45
2023-05-08T21:32:43.814Z,10.55
2023-05-08T21:37:37.225Z,11.90
2023-05-08T21:40:04.418Z,8.65
2023-05-08T21:42:31.225Z,8.50
2023-05-08T21:44:58.287Z,10.27
2023-05-08T21:47:27.905Z,9.30
2023-05-08T21:49:55.124Z,7.85
2023-05-08T21:52:22.493Z,9.25
2023-05-08T21:54:52.655Z,8.98
2023-05-08T21:57:19.235Z,9.90
2023-05-08T21:59:45.666Z,9.45
2023-05-08T22:02:12.333Z,10.30
2023-05-08T22:04:38.911Z,9.90
2023-05-08T22:07:05.453Z,9.65
2023-05-08T22:09:31.927Z,10.40
2023-05-08T22:11:58.423Z,11.27
2023-05-08T22:14:25.008Z,12.05
2023-05-08T22:16:51.594Z,11.27
2023-05-08T22:19:18.051Z,10.95
2023-05-08T22:21:44.488Z,11.40
2023-05-08T22:24:11.073Z,10.75
2023-05-08T22:26:37.596Z,11.45
2023-05-08T22:29:04.124Z,11.07
2023-05-08T22:31:30.590Z,11.60
2023-05-08T22:33:57.571Z,11.15
2023-05-08T22:36:24.261Z,9.68
2023-05-08T22:38:50.839Z,10.63
2023-05-08T22:41:17.398Z,11.60
2023-05-08T22:43:43.976Z,11.02
2023-05-08T22:46:11.218Z,11.52
2023-05-08T22:48:37.777Z,11.35
2023-05-08T22:51:04.422Z,12.02
2023-05-08T22:53:36.385Z,11.15
2023-05-08T22:56:02.855Z,12.40
2023-05-08T22:58:29.384Z,9.93
2023-05-08T23:00:56.028Z,9.55
2023-05-08T23:03:22.551Z,9.45
2023-05-08T23:05:49.295Z,9.90
2023-05-08T23:08:15.815Z,9.75
2023-05-08T23:10:42.258Z,9.18
2023-05-08T23:13:08.801Z,8.73
2023-05-08T23:15:35.424Z,9.20
2023-05-08T23:18:02.043Z,9.57
2023-05-08T23:20:28.606Z,10.48
2023-05-08T23:22:55.430Z,9.80
2023-05-08T23:25:22.235Z,9.43
2023-05-08T23:27:48.794Z,9.35
2023-05-08T23:30:16.999Z,9.18
2023-05-08T23:32:43.857Z,9.55
2023-05-08T23:35:10.619Z,9.65
2023-05-08T23:37:37.059Z,9.23
2023-05-08T23:40:03.752Z,9.50
2023-05-08T23:42:30.502Z,9.05
2023-05-08T23:44:56.984Z,9.00
2023-05-08T23:47:23.978Z,9.00
2023-05-08T23:49:50.455Z,8.15
2023-05-08T23:52:17.098Z,9.15
2023-05-08T23:54:43.532Z,8.88
2023-05-08T23:57:10.059Z,9.40
2023-05-08T23:59:36.474Z,8.70
